sensor_id;sensor_type;location;lat;lon;timestamp;P1;durP1;ratioP1;P2;durP2;ratioP2
78458;SDS011;67753;42.684;23.330;2023-02-28T00:01:59;29.27;;;25.40;;
78458;SDS011;67753;42.684;23.330;2023-02-28T00:04:01;29.10;;;23.63;;
78458;SDS011;67753;42.684;23.330;2023-02-28T00:06:04;24.73;;;21.73;;
78458;SDS011;67753;42.684;23.330;2023-02-28T00:08:09;26.77;;;22.13;;
78458;SDS011;67753;42.684;23.330;2023-02-28T00:10:11;25.80;;;22.17;;
78458;SDS011;67753;42.684;23.330;2023-02-28T00:12:16;27.97;;;22.03;;
78458;SDS011;67753;42.684;23.330;2023-02-28T00:14:17;27.00;;;22.23;;
78458;SDS011;67753;42.684;23.330;2023-02-28T00:16:20;25.83;;;21.50;;
78458;SDS011;67753;42.684;23.330;2023-02-28T00:18:24;26.67;;;22.07;;
78458;SDS011;67753;42.684;23.330;2023-02-28T00:20:25;24.57;;;21.97;;
78458;SDS011;67753;42.684;23.330;2023-02-28T00:22:29;26.03;;;22.77;;
78458;SDS011;67753;42.684;23.330;2023-02-28T00:24:31;24.70;;;21.07;;
78458;SDS011;67753;42.684;23.330;2023-02-28T00:26:33;28.20;;;22.03;;
78458;SDS011;67753;42.684;23.330;2023-02-28T00:28:35;23.83;;;20.57;;
78458;SDS011;67753;42.684;23.330;2023-02-28T00:30:38;28.73;;;21.60;;
78458;SDS011;67753;42.684;23.330;2023-02-28T00:32:40;25.57;;;20.87;;
78458;SDS011;67753;42.684;23.330;2023-02-28T00:34:42;27.50;;;22.50;;
78458;SDS011;67753;42.684;23.330;2023-02-28T00:36:44;25.80;;;21.90;;
78458;SDS011;67753;42.684;23.330;2023-02-28T00:38:47;26.67;;;22.17;;
78458;SDS011;67753;42.684;23.330;2023-02-28T00:40:49;32.33;;;23.57;;
78458;SDS011;67753;42.684;23.330;2023-02-28T00:42:51;26.10;;;23.30;;
78458;SDS011;67753;42.684;23.330;2023-02-28T00:44:53;24.03;;;21.40;;
78458;SDS011;67753;42.684;23.330;2023-02-28T00:46:55;26.43;;;23.27;;
78458;SDS011;67753;42.684;23.330;2023-02-28T00:48:58;31.17;;;24.93;;
78458;SDS011;67753;42.684;23.330;2023-02-28T00:51:00;28.83;;;23.20;;
78458;SDS011;67753;42.684;23.330;2023-02-28T00:53:02;26.47;;;23.60;;
78458;SDS011;67753;42.684;23.330;2023-02-28T00:55:06;28.93;;;23.63;;
78458;SDS011;67753;42.684;23.330;2023-02-28T00:57:09;28.10;;;23.07;;
78458;SDS011;67753;42.684;23.330;2023-02-28T00:59:10;27.93;;;23.93;;
78458;SDS011;67753;42.684;23.330;2023-02-28T01:01:13;30.53;;;25.30;;
78458;SDS011;67753;42.684;23.330;2023-02-28T01:03:15;28.60;;;24.10;;
78458;SDS011;67753;42.684;23.330;2023-02-28T01:05:17;28.67;;;23.67;;
78458;SDS011;67753;42.684;23.330;2023-02-28T01:07:20;30.60;;;25.47;;
78458;SDS011;67753;42.684;23.330;2023-02-28T01:09:21;29.70;;;26.37;;
78458;SDS011;67753;42.684;23.330;2023-02-28T01:11:24;29.80;;;24.60;;
78458;SDS011;67753;42.684;23.330;2023-02-28T01:13:27;34.50;;;27.20;;
78458;SDS011;67753;42.684;23.330;2023-02-28T01:15:28;28.20;;;25.20;;
78458;SDS011;67753;42.684;23.330;2023-02-28T01:17:32;32.03;;;25.83;;
78458;SDS011;67753;42.684;23.330;2023-02-28T01:19:34;30.90;;;26.20;;
78458;SDS011;67753;42.684;23.330;2023-02-28T01:21:36;30.57;;;25.33;;
78458;SDS011;67753;42.684;23.330;2023-02-28T01:23:38;40.43;;;30.20;;
78458;SDS011;67753;42.684;23.330;2023-02-28T01:25:41;32.20;;;27.67;;
78458;SDS011;67753;42.684;23.330;2023-02-28T01:27:45;30.30;;;25.53;;
78458;SDS011;67753;42.684;23.330;2023-02-28T01:29:46;29.83;;;25.50;;
78458;SDS011;67753;42.684;23.330;2023-02-28T01:31:48;30.40;;;25.57;;
78458;SDS011;67753;42.684;23.330;2023-02-28T01:33:50;33.33;;;26.40;;
78458;SDS011;67753;42.684;23.330;2023-02-28T01:35:57;30.20;;;26.93;;
78458;SDS011;67753;42.684;23.330;2023-02-28T01:37:59;28.33;;;25.27;;
78458;SDS011;67753;42.684;23.330;2023-02-28T01:40:01;34.17;;;27.57;;
78458;SDS011;67753;42.684;23.330;2023-02-28T01:42:04;34.23;;;28.13;;
78458;SDS011;67753;42.684;23.330;2023-02-28T01:46:43;35.63;;;27.00;;
78458;SDS011;67753;42.684;23.330;2023-02-28T01:48:45;30.10;;;24.47;;
78458;SDS011;67753;42.684;23.330;2023-02-28T01:50:52;32.87;;;26.37;;
78458;SDS011;67753;42.684;23.330;2023-02-28T01:52:56;30.57;;;25.80;;
78458;SDS011;67753;42.684;23.330;2023-02-28T01:55:02;33.60;;;27.57;;
78458;SDS011;67753;42.684;23.330;2023-02-28T01:57:10;34.20;;;27.07;;
78458;SDS011;67753;42.684;23.330;2023-02-28T01:59:22;35.73;;;26.53;;
78458;SDS011;67753;42.684;23.330;2023-02-28T02:01:28;34.63;;;27.20;;
78458;SDS011;67753;42.684;23.330;2023-02-28T02:03:33;37.03;;;28.10;;
78458;SDS011;67753;42.684;23.330;2023-02-28T02:05:37;29.90;;;26.30;;
78458;SDS011;67753;42.684;23.330;2023-02-28T02:07:41;37.33;;;28.47;;
78458;SDS011;67753;42.684;23.330;2023-02-28T02:09:44;37.93;;;28.73;;
78458;SDS011;67753;42.684;23.330;2023-02-28T02:11:46;32.87;;;27.20;;
78458;SDS011;67753;42.684;23.330;2023-02-28T02:13:55;31.73;;;26.33;;
78458;SDS011;67753;42.684;23.330;2023-02-28T02:16:19;33.43;;;28.00;;
78458;SDS011;67753;42.684;23.330;2023-02-28T02:18:30;32.50;;;27.63;;
78458;SDS011;67753;42.684;23.330;2023-02-28T02:26:04;36.93;;;30.13;;
78458;SDS011;67753;42.684;23.330;2023-02-28T02:28:42;37.90;;;28.67;;
78458;SDS011;67753;42.684;23.330;2023-02-28T02:31:21;35.23;;;28.27;;
78458;SDS011;67753;42.684;23.330;2023-02-28T02:36:10;36.20;;;29.27;;
78458;SDS011;67753;42.684;23.330;2023-02-28T02:38:20;40.10;;;32.73;;
78458;SDS011;67753;42.684;23.330;2023-02-28T02:40:34;45.30;;;33.73;;
78458;SDS011;67753;42.684;23.330;2023-02-28T02:42:41;42.83;;;30.73;;
78458;SDS011;67753;42.684;23.330;2023-02-28T02:44:47;39.57;;;31.47;;
78458;SDS011;67753;42.684;23.330;2023-02-28T02:46:54;41.50;;;31.07;;
78458;SDS011;67753;42.684;23.330;2023-02-28T02:49:00;46.23;;;31.67;;
78458;SDS011;67753;42.684;23.330;2023-02-28T02:51:05;37.77;;;30.03;;
78458;SDS011;67753;42.684;23.330;2023-02-28T02:53:14;39.40;;;30.23;;
78458;SDS011;67753;42.684;23.330;2023-02-28T02:55:21;46.97;;;33.93;;
78458;SDS011;67753;42.684;23.330;2023-02-28T02:57:25;48.70;;;34.57;;
78458;SDS011;67753;42.684;23.330;2023-02-28T02:59:32;42.43;;;31.30;;
78458;SDS011;67753;42.684;23.330;2023-02-28T03:01:36;44.93;;;33.33;;
78458;SDS011;67753;42.684;23.330;2023-02-28T03:03:42;46.67;;;33.43;;
78458;SDS011;67753;42.684;23.330;2023-02-28T03:05:47;43.13;;;31.00;;
78458;SDS011;67753;42.684;23.330;2023-02-28T03:07:50;47.13;;;33.87;;
78458;SDS011;67753;42.684;23.330;2023-02-28T03:09:56;49.70;;;33.87;;
78458;SDS011;67753;42.684;23.330;2023-02-28T03:11:59;41.30;;;30.30;;
78458;SDS011;67753;42.684;23.330;2023-02-28T03:14:04;43.17;;;31.27;;
78458;SDS011;67753;42.684;23.330;2023-02-28T03:19:16;43.80;;;31.33;;
78458;SDS011;67753;42.684;23.330;2023-02-28T03:21:37;41.80;;;30.37;;
78458;SDS011;67753;42.684;23.330;2023-02-28T03:23:45;40.33;;;29.37;;
78458;SDS011;67753;42.684;23.330;2023-02-28T03:25:58;41.70;;;31.30;;
78458;SDS011;67753;42.684;23.330;2023-02-28T03:28:07;41.10;;;30.37;;
78458;SDS011;67753;42.684;23.330;2023-02-28T03:30:17;38.70;;;29.43;;
78458;SDS011;67753;42.684;23.330;2023-02-28T03:32:24;39.60;;;30.77;;
78458;SDS011;67753;42.684;23.330;2023-02-28T03:34:29;43.57;;;30.60;;
78458;SDS011;67753;42.684;23.330;2023-02-28T03:36:36;38.80;;;29.93;;
78458;SDS011;67753;42.684;23.330;2023-02-28T03:38:44;36.53;;;29.10;;
78458;SDS011;67753;42.684;23.330;2023-02-28T03:40:51;35.37;;;29.03;;
78458;SDS011;67753;42.684;23.330;2023-02-28T03:43:03;35.07;;;27.07;;
78458;SDS011;67753;42.684;23.330;2023-02-28T03:45:11;38.47;;;29.10;;
78458;SDS011;67753;42.684;23.330;2023-02-28T03:47:19;36.17;;;29.27;;
78458;SDS011;67753;42.684;23.330;2023-02-28T03:49:27;37.63;;;29.00;;
78458;SDS011;67753;42.684;23.330;2023-02-28T03:51:34;37.30;;;29.73;;
78458;SDS011;67753;42.684;23.330;2023-02-28T03:53:38;39.00;;;29.67;;
78458;SDS011;67753;42.684;23.330;2023-02-28T03:55:44;36.67;;;29.13;;
78458;SDS011;67753;42.684;23.330;2023-02-28T03:57:52;41.63;;;31.47;;
78458;SDS011;67753;42.684;23.330;2023-02-28T04:00:00;36.00;;;28.73;;
78458;SDS011;67753;42.684;23.330;2023-02-28T04:02:05;38.60;;;30.47;;
78458;SDS011;67753;42.684;23.330;2023-02-28T04:04:09;38.67;;;29.97;;
78458;SDS011;67753;42.684;23.330;2023-02-28T04:06:13;42.80;;;30.17;;
78458;SDS011;67753;42.684;23.330;2023-02-28T04:08:18;40.00;;;30.27;;
78458;SDS011;67753;42.684;23.330;2023-02-28T04:10:19;40.83;;;30.37;;
78458;SDS011;67753;42.684;23.330;2023-02-28T04:12:22;38.83;;;30.67;;
78458;SDS011;67753;42.684;23.330;2023-02-28T04:14:24;38.30;;;30.93;;
78458;SDS011;67753;42.684;23.330;2023-02-28T04:16:28;38.73;;;30.60;;
78458;SDS011;67753;42.684;23.330;2023-02-28T04:18:30;44.87;;;32.90;;
78458;SDS011;67753;42.684;23.330;2023-02-28T04:20:32;42.27;;;31.10;;
78458;SDS011;67753;42.684;23.330;2023-02-28T04:22:34;39.17;;;31.43;;
78458;SDS011;67753;42.684;23.330;2023-02-28T04:24:36;44.43;;;32.97;;
78458;SDS011;67753;42.684;23.330;2023-02-28T04:26:41;46.93;;;32.57;;
78458;SDS011;67753;42.684;23.330;2023-02-28T04:28:45;40.43;;;30.83;;
78458;SDS011;67753;42.684;23.330;2023-02-28T04:30:47;39.97;;;31.17;;
78458;SDS011;67753;42.684;23.330;2023-02-28T04:32:51;41.50;;;30.90;;
78458;SDS011;67753;42.684;23.330;2023-02-28T04:34:53;51.17;;;33.90;;
78458;SDS011;67753;42.684;23.330;2023-02-28T04:36:55;42.03;;;31.07;;
78458;SDS011;67753;42.684;23.330;2023-02-28T04:38:57;38.47;;;29.67;;
78458;SDS011;67753;42.684;23.330;2023-02-28T04:41:00;35.47;;;27.73;;
78458;SDS011;67753;42.684;23.330;2023-02-28T04:43:02;39.37;;;30.23;;
78458;SDS011;67753;42.684;23.330;2023-02-28T04:45:05;30.53;;;26.13;;
78458;SDS011;67753;42.684;23.330;2023-02-28T04:47:10;33.17;;;27.23;;
78458;SDS011;67753;42.684;23.330;2023-02-28T04:49:13;38.93;;;27.97;;
78458;SDS011;67753;42.684;23.330;2023-02-28T04:51:16;37.37;;;26.80;;
78458;SDS011;67753;42.684;23.330;2023-02-28T04:53:20;39.80;;;28.70;;
78458;SDS011;67753;42.684;23.330;2023-02-28T04:55:22;39.43;;;29.57;;
78458;SDS011;67753;42.684;23.330;2023-02-28T04:57:24;41.73;;;30.53;;
78458;SDS011;67753;42.684;23.330;2023-02-28T04:59:26;45.60;;;30.60;;
78458;SDS011;67753;42.684;23.330;2023-02-28T05:01:29;41.33;;;30.23;;
78458;SDS011;67753;42.684;23.330;2023-02-28T05:03:32;45.13;;;32.87;;
78458;SDS011;67753;42.684;23.330;2023-02-28T05:05:36;44.07;;;31.33;;
78458;SDS011;67753;42.684;23.330;2023-02-28T05:07:37;42.53;;;32.17;;
78458;SDS011;67753;42.684;23.330;2023-02-28T05:09:39;41.90;;;31.53;;
78458;SDS011;67753;42.684;23.330;2023-02-28T05:11:41;43.20;;;31.07;;
78458;SDS011;67753;42.684;23.330;2023-02-28T05:13:45;40.53;;;29.73;;
78458;SDS011;67753;42.684;23.330;2023-02-28T05:15:47;43.13;;;29.30;;
78458;SDS011;67753;42.684;23.330;2023-02-28T05:17:49;39.23;;;30.10;;
78458;SDS011;67753;42.684;23.330;2023-02-28T05:19:51;40.17;;;30.90;;
78458;SDS011;67753;42.684;23.330;2023-02-28T05:21:55;45.27;;;32.00;;
78458;SDS011;67753;42.684;23.330;2023-02-28T05:23:57;42.97;;;31.73;;
78458;SDS011;67753;42.684;23.330;2023-02-28T05:26:01;40.27;;;29.63;;
78458;SDS011;67753;42.684;23.330;2023-02-28T05:28:03;45.03;;;32.30;;
78458;SDS011;67753;42.684;23.330;2023-02-28T05:30:05;43.73;;;31.53;;
78458;SDS011;67753;42.684;23.330;2023-02-28T05:32:11;46.33;;;31.20;;
78458;SDS011;67753;42.684;23.330;2023-02-28T05:34:13;47.40;;;33.90;;
78458;SDS011;67753;42.684;23.330;2023-02-28T05:36:16;41.93;;;31.70;;
78458;SDS011;67753;42.684;23.330;2023-02-28T05:38:20;43.43;;;32.03;;
78458;SDS011;67753;42.684;23.330;2023-02-28T05:40:23;40.07;;;30.83;;
78458;SDS011;67753;42.684;23.330;2023-02-28T05:42:25;43.87;;;32.37;;
78458;SDS011;67753;42.684;23.330;2023-02-28T05:44:26;45.63;;;32.60;;
78458;SDS011;67753;42.684;23.330;2023-02-28T05:46:28;40.97;;;31.47;;
78458;SDS011;67753;42.684;23.330;2023-02-28T05:48:30;43.10;;;31.33;;
78458;SDS011;67753;42.684;23.330;2023-02-28T05:50:32;44.10;;;31.17;;
78458;SDS011;67753;42.684;23.330;2023-02-28T05:52:34;40.60;;;29.60;;
78458;SDS011;67753;42.684;23.330;2023-02-28T05:54:37;38.27;;;30.67;;
78458;SDS011;67753;42.684;23.330;2023-02-28T05:56:39;37.07;;;29.53;;
78458;SDS011;67753;42.684;23.330;2023-02-28T05:58:44;40.27;;;30.63;;
78458;SDS011;67753;42.684;23.330;2023-02-28T06:00:46;40.10;;;30.43;;
78458;SDS011;67753;42.684;23.330;2023-02-28T06:02:48;35.97;;;30.13;;
78458;SDS011;67753;42.684;23.330;2023-02-28T06:04:51;34.90;;;28.90;;
78458;SDS011;67753;42.684;23.330;2023-02-28T06:06:53;35.37;;;28.37;;
78458;SDS011;67753;42.684;23.330;2023-02-28T06:08:57;39.50;;;30.23;;
78458;SDS011;67753;42.684;23.330;2023-02-28T06:11:03;38.47;;;29.27;;
78458;SDS011;67753;42.684;23.330;2023-02-28T06:13:06;39.13;;;28.50;;
78458;SDS011;67753;42.684;23.330;2023-02-28T06:15:10;42.97;;;31.43;;
78458;SDS011;67753;42.684;23.330;2023-02-28T06:17:14;37.97;;;30.93;;
78458;SDS011;67753;42.684;23.330;2023-02-28T06:19:15;45.73;;;32.60;;
78458;SDS011;67753;42.684;23.330;2023-02-28T06:21:18;44.17;;;32.10;;
78458;SDS011;67753;42.684;23.330;2023-02-28T06:23:20;45.80;;;32.80;;
78458;SDS011;67753;42.684;23.330;2023-02-28T06:25:22;41.63;;;32.37;;
78458;SDS011;67753;42.684;23.330;2023-02-28T06:27:25;48.33;;;35.87;;
78458;SDS011;67753;42.684;23.330;2023-02-28T06:29:27;48.57;;;35.03;;
78458;SDS011;67753;42.684;23.330;2023-02-28T06:31:29;47.33;;;35.23;;
78458;SDS011;67753;42.684;23.330;2023-02-28T06:33:31;43.33;;;33.67;;
78458;SDS011;67753;42.684;23.330;2023-02-28T06:35:33;43.23;;;34.07;;
78458;SDS011;67753;42.684;23.330;2023-02-28T06:37:35;43.13;;;34.30;;
78458;SDS011;67753;42.684;23.330;2023-02-28T06:39:37;53.03;;;45.50;;
78458;SDS011;67753;42.684;23.330;2023-02-28T06:41:39;52.30;;;43.67;;
78458;SDS011;67753;42.684;23.330;2023-02-28T06:43:43;48.80;;;38.00;;
78458;SDS011;67753;42.684;23.330;2023-02-28T06:45:45;44.27;;;34.90;;
78458;SDS011;67753;42.684;23.330;2023-02-28T06:47:47;65.80;;;53.03;;
78458;SDS011;67753;42.684;23.330;2023-02-28T06:49:52;42.40;;;37.43;;
78458;SDS011;67753;42.684;23.330;2023-02-28T06:51:53;35.53;;;30.60;;
78458;SDS011;67753;42.684;23.330;2023-02-28T06:53:55;30.53;;;27.23;;
78458;SDS011;67753;42.684;23.330;2023-02-28T06:55:57;34.80;;;28.00;;
78458;SDS011;67753;42.684;23.330;2023-02-28T06:57:59;30.67;;;27.27;;
78458;SDS011;67753;42.684;23.330;2023-02-28T07:00:03;32.27;;;26.90;;
78458;SDS011;67753;42.684;23.330;2023-02-28T07:02:08;32.67;;;29.17;;
78458;SDS011;67753;42.684;23.330;2023-02-28T07:04:10;35.10;;;30.10;;
78458;SDS011;67753;42.684;23.330;2023-02-28T07:06:13;32.53;;;29.13;;
78458;SDS011;67753;42.684;23.330;2023-02-28T07:08:17;32.97;;;29.13;;
78458;SDS011;67753;42.684;23.330;2023-02-28T07:10:19;37.23;;;33.23;;
78458;SDS011;67753;42.684;23.330;2023-02-28T07:12:21;37.03;;;31.77;;
78458;SDS011;67753;42.684;23.330;2023-02-28T07:14:23;37.50;;;32.80;;
78458;SDS011;67753;42.684;23.330;2023-02-28T07:16:27;45.33;;;40.47;;
78458;SDS011;67753;42.684;23.330;2023-02-28T07:18:29;41.87;;;36.90;;
78458;SDS011;67753;42.684;23.330;2023-02-28T07:20:32;38.07;;;32.47;;
78458;SDS011;67753;42.684;23.330;2023-02-28T07:22:34;37.93;;;31.17;;
78458;SDS011;67753;42.684;23.330;2023-02-28T07:24:36;34.67;;;28.87;;
78458;SDS011;67753;42.684;23.330;2023-02-28T07:26:38;34.37;;;29.20;;
78458;SDS011;67753;42.684;23.330;2023-02-28T07:28:40;35.40;;;30.23;;
78458;SDS011;67753;42.684;23.330;2023-02-28T07:30:42;36.43;;;32.53;;
78458;SDS011;67753;42.684;23.330;2023-02-28T07:32:46;37.83;;;33.87;;
78458;SDS011;67753;42.684;23.330;2023-02-28T07:34:48;34.03;;;30.37;;
78458;SDS011;67753;42.684;23.330;2023-02-28T07:36:52;33.77;;;30.13;;
78458;SDS011;67753;42.684;23.330;2023-02-28T07:38:54;38.67;;;31.80;;
78458;SDS011;67753;42.684;23.330;2023-02-28T07:40:56;33.40;;;29.80;;
78458;SDS011;67753;42.684;23.330;2023-02-28T07:42:58;38.50;;;29.73;;
78458;SDS011;67753;42.684;23.330;2023-02-28T07:45:01;32.90;;;29.00;;
78458;SDS011;67753;42.684;23.330;2023-02-28T07:47:03;37.90;;;31.77;;
78458;SDS011;67753;42.684;23.330;2023-02-28T07:49:06;36.53;;;31.30;;
78458;SDS011;67753;42.684;23.330;2023-02-28T07:51:13;37.83;;;33.80;;
78458;SDS011;67753;42.684;23.330;2023-02-28T07:53:15;34.57;;;30.97;;
78458;SDS011;67753;42.684;23.330;2023-02-28T07:55:17;36.30;;;31.27;;
78458;SDS011;67753;42.684;23.330;2023-02-28T07:57:19;34.37;;;30.63;;
78458;SDS011;67753;42.684;23.330;2023-02-28T07:59:21;35.83;;;30.97;;
78458;SDS011;67753;42.684;23.330;2023-02-28T08:01:23;35.57;;;30.20;;
78458;SDS011;67753;42.684;23.330;2023-02-28T08:03:26;34.47;;;29.37;;
78458;SDS011;67753;42.684;23.330;2023-02-28T08:05:29;35.03;;;30.93;;
78458;SDS011;67753;42.684;23.330;2023-02-28T08:07:31;37.17;;;31.57;;
78458;SDS011;67753;42.684;23.330;2023-02-28T08:09:33;35.40;;;31.60;;
78458;SDS011;67753;42.684;23.330;2023-02-28T08:11:35;34.17;;;29.90;;
78458;SDS011;67753;42.684;23.330;2023-02-28T08:13:38;39.43;;;32.77;;
78458;SDS011;67753;42.684;23.330;2023-02-28T08:15:40;34.40;;;29.70;;
78458;SDS011;67753;42.684;23.330;2023-02-28T08:17:42;39.20;;;32.23;;
78458;SDS011;67753;42.684;23.330;2023-02-28T08:19:44;36.23;;;32.47;;
78458;SDS011;67753;42.684;23.330;2023-02-28T08:21:48;35.90;;;32.03;;
78458;SDS011;67753;42.684;23.330;2023-02-28T08:23:50;37.53;;;32.10;;
78458;SDS011;67753;42.684;23.330;2023-02-28T08:25:53;32.07;;;28.70;;
78458;SDS011;67753;42.684;23.330;2023-02-28T08:27:55;36.37;;;30.97;;
78458;SDS011;67753;42.684;23.330;2023-02-28T08:29:59;35.00;;;31.23;;
78458;SDS011;67753;42.684;23.330;2023-02-28T08:32:01;34.37;;;30.63;;
78458;SDS011;67753;42.684;23.330;2023-02-28T08:34:04;36.40;;;32.90;;
78458;SDS011;67753;42.684;23.330;2023-02-28T08:36:08;37.37;;;31.57;;
78458;SDS011;67753;42.684;23.330;2023-02-28T08:38:12;38.53;;;34.40;;
78458;SDS011;67753;42.684;23.330;2023-02-28T08:40:14;41.63;;;33.47;;
78458;SDS011;67753;42.684;23.330;2023-02-28T08:42:18;35.47;;;30.57;;
78458;SDS011;67753;42.684;23.330;2023-02-28T08:44:20;35.57;;;31.80;;
78458;SDS011;67753;42.684;23.330;2023-02-28T08:46:22;43.23;;;38.43;;
78458;SDS011;67753;42.684;23.330;2023-02-28T08:48:25;64.50;;;52.57;;
78458;SDS011;67753;42.684;23.330;2023-02-28T08:50:28;42.60;;;35.27;;
78458;SDS011;67753;42.684;23.330;2023-02-28T08:52:30;38.00;;;33.83;;
78458;SDS011;67753;42.684;23.330;2023-02-28T08:54:33;38.27;;;31.97;;
78458;SDS011;67753;42.684;23.330;2023-02-28T08:56:35;33.53;;;29.97;;
78458;SDS011;67753;42.684;23.330;2023-02-28T08:58:37;32.30;;;29.00;;
78458;SDS011;67753;42.684;23.330;2023-02-28T09:00:39;34.13;;;30.57;;
78458;SDS011;67753;42.684;23.330;2023-02-28T09:02:41;33.80;;;30.30;;
78458;SDS011;67753;42.684;23.330;2023-02-28T09:04:43;37.03;;;29.53;;
78458;SDS011;67753;42.684;23.330;2023-02-28T09:06:46;32.80;;;26.73;;
78458;SDS011;67753;42.684;23.330;2023-02-28T09:08:49;28.00;;;25.00;;
78458;SDS011;67753;42.684;23.330;2023-02-28T09:10:52;31.77;;;24.37;;
78458;SDS011;67753;42.684;23.330;2023-02-28T09:12:54;32.67;;;25.53;;
78458;SDS011;67753;42.684;23.330;2023-02-28T09:14:56;26.90;;;20.73;;
78458;SDS011;67753;42.684;23.330;2023-02-28T09:16:57;29.47;;;21.77;;
78458;SDS011;67753;42.684;23.330;2023-02-28T09:18:59;21.80;;;19.33;;
78458;SDS011;67753;42.684;23.330;2023-02-28T09:21:02;26.37;;;19.77;;
78458;SDS011;67753;42.684;23.330;2023-02-28T09:23:05;29.00;;;20.20;;
78458;SDS011;67753;42.684;23.330;2023-02-28T09:25:07;23.43;;;17.70;;
78458;SDS011;67753;42.684;23.330;2023-02-28T09:27:11;27.00;;;19.43;;
78458;SDS011;67753;42.684;23.330;2023-02-28T09:29:13;21.67;;;18.27;;
78458;SDS011;67753;42.684;23.330;2023-02-28T09:31:18;23.70;;;19.10;;
78458;SDS011;67753;42.684;23.330;2023-02-28T09:33:22;24.47;;;17.73;;
78458;SDS011;67753;42.684;23.330;2023-02-28T09:35:24;23.33;;;17.80;;
78458;SDS011;67753;42.684;23.330;2023-02-28T09:37:26;22.97;;;18.17;;
78458;SDS011;67753;42.684;23.330;2023-02-28T09:39:31;20.43;;;18.27;;
78458;SDS011;67753;42.684;23.330;2023-02-28T09:41:36;23.73;;;19.00;;
78458;SDS011;67753;42.684;23.330;2023-02-28T09:43:49;22.43;;;17.93;;
78458;SDS011;67753;42.684;23.330;2023-02-28T09:45:54;26.70;;;19.37;;
78458;SDS011;67753;42.684;23.330;2023-02-28T09:48:03;21.63;;;17.03;;
78458;SDS011;67753;42.684;23.330;2023-02-28T09:50:17;20.60;;;17.20;;
78458;SDS011;67753;42.684;23.330;2023-02-28T09:52:30;24.37;;;18.73;;
78458;SDS011;67753;42.684;23.330;2023-02-28T09:54:34;20.53;;;17.77;;
78458;SDS011;67753;42.684;23.330;2023-02-28T09:56:38;24.33;;;18.67;;
78458;SDS011;67753;42.684;23.330;2023-02-28T09:58:44;23.60;;;18.83;;
78458;SDS011;67753;42.684;23.330;2023-02-28T10:00:54;20.47;;;17.50;;
78458;SDS011;67753;42.684;23.330;2023-02-28T10:03:04;20.67;;;16.30;;
78458;SDS011;67753;42.684;23.330;2023-02-28T10:05:18;20.43;;;15.63;;
78458;SDS011;67753;42.684;23.330;2023-02-28T10:07:37;22.50;;;16.77;;
78458;SDS011;67753;42.684;23.330;2023-02-28T10:09:56;19.13;;;17.10;;
78458;SDS011;67753;42.684;23.330;2023-02-28T10:12:03;21.43;;;17.93;;
78458;SDS011;67753;42.684;23.330;2023-02-28T10:14:10;21.93;;;17.87;;
78458;SDS011;67753;42.684;23.330;2023-02-28T10:16:17;23.07;;;18.33;;
78458;SDS011;67753;42.684;23.330;2023-02-28T10:18:26;18.97;;;15.83;;
78458;SDS011;67753;42.684;23.330;2023-02-28T10:20:33;20.30;;;15.73;;
78458;SDS011;67753;42.684;23.330;2023-02-28T10:22:50;20.63;;;16.17;;
78458;SDS011;67753;42.684;23.330;2023-02-28T10:25:16;16.70;;;14.90;;
78458;SDS011;67753;42.684;23.330;2023-02-28T10:27:20;15.53;;;13.50;;
78458;SDS011;67753;42.684;23.330;2023-02-28T10:29:24;21.37;;;16.13;;
78458;SDS011;67753;42.684;23.330;2023-02-28T10:31:27;16.50;;;14.30;;
78458;SDS011;67753;42.684;23.330;2023-02-28T10:33:30;20.03;;;15.63;;
78458;SDS011;67753;42.684;23.330;2023-02-28T10:35:34;19.83;;;15.30;;
78458;SDS011;67753;42.684;23.330;2023-02-28T10:37:37;21.93;;;15.50;;
78458;SDS011;67753;42.684;23.330;2023-02-28T10:39:40;18.47;;;14.43;;
78458;SDS011;67753;42.684;23.330;2023-02-28T10:41:43;17.53;;;14.13;;
78458;SDS011;67753;42.684;23.330;2023-02-28T10:43:45;22.10;;;15.30;;
78458;SDS011;67753;42.684;23.330;2023-02-28T10:45:57;20.00;;;15.07;;
78458;SDS011;67753;42.684;23.330;2023-02-28T10:48:04;19.00;;;14.53;;
78458;SDS011;67753;42.684;23.330;2023-02-28T10:50:28;19.23;;;13.57;;
78458;SDS011;67753;42.684;23.330;2023-02-28T10:52:33;17.57;;;14.00;;
78458;SDS011;67753;42.684;23.330;2023-02-28T10:54:38;19.33;;;14.10;;
78458;SDS011;67753;42.684;23.330;2023-02-28T10:56:41;17.47;;;15.03;;
78458;SDS011;67753;42.684;23.330;2023-02-28T10:58:50;17.93;;;14.13;;
78458;SDS011;67753;42.684;23.330;2023-02-28T11:00:54;16.17;;;12.97;;
78458;SDS011;67753;42.684;23.330;2023-02-28T11:02:56;16.67;;;13.30;;
78458;SDS011;67753;42.684;23.330;2023-02-28T11:04:59;24.53;;;14.10;;
78458;SDS011;67753;42.684;23.330;2023-02-28T11:07:02;20.60;;;14.83;;
78458;SDS011;67753;42.684;23.330;2023-02-28T11:09:12;19.57;;;13.70;;
78458;SDS011;67753;42.684;23.330;2023-02-28T11:11:21;19.40;;;13.37;;
78458;SDS011;67753;42.684;23.330;2023-02-28T11:13:26;19.80;;;13.30;;
78458;SDS011;67753;42.684;23.330;2023-02-28T11:15:32;22.27;;;13.80;;
78458;SDS011;67753;42.684;23.330;2023-02-28T11:17:35;19.33;;;14.87;;
78458;SDS011;67753;42.684;23.330;2023-02-28T11:19:38;16.20;;;13.97;;
78458;SDS011;67753;42.684;23.330;2023-02-28T11:21:49;22.47;;;14.50;;
78458;SDS011;67753;42.684;23.330;2023-02-28T11:23:57;15.53;;;13.93;;
78458;SDS011;67753;42.684;23.330;2023-02-28T11:26:05;17.50;;;14.33;;
78458;SDS011;67753;42.684;23.330;2023-02-28T11:28:23;21.73;;;16.03;;
78458;SDS011;67753;42.684;23.330;2023-02-28T11:30:28;18.70;;;14.40;;
78458;SDS011;67753;42.684;23.330;2023-02-28T11:32:33;21.27;;;14.03;;
78458;SDS011;67753;42.684;23.330;2023-02-28T11:34:35;18.30;;;13.23;;
78458;SDS011;67753;42.684;23.330;2023-02-28T11:36:39;17.23;;;13.57;;
78458;SDS011;67753;42.684;23.330;2023-02-28T11:38:46;18.30;;;13.87;;
78458;SDS011;67753;42.684;23.330;2023-02-28T11:40:53;17.40;;;13.27;;
78458;SDS011;67753;42.684;23.330;2023-02-28T11:43:09;15.30;;;12.43;;
78458;SDS011;67753;42.684;23.330;2023-02-28T11:45:24;19.23;;;13.47;;
78458;SDS011;67753;42.684;23.330;2023-02-28T11:47:42;17.87;;;14.97;;
78458;SDS011;67753;42.684;23.330;2023-02-28T11:49:50;18.87;;;14.50;;
78458;SDS011;67753;42.684;23.330;2023-02-28T11:52:06;17.47;;;15.57;;
78458;SDS011;67753;42.684;23.330;2023-02-28T11:56:53;18.27;;;15.60;;
78458;SDS011;67753;42.684;23.330;2023-02-28T11:59:02;21.10;;;14.37;;
78458;SDS011;67753;42.684;23.330;2023-02-28T12:01:16;19.63;;;14.67;;
78458;SDS011;67753;42.684;23.330;2023-02-28T12:03:31;19.20;;;15.73;;
78458;SDS011;67753;42.684;23.330;2023-02-28T12:05:45;23.23;;;15.93;;
78458;SDS011;67753;42.684;23.330;2023-02-28T12:07:55;20.23;;;15.63;;
78458;SDS011;67753;42.684;23.330;2023-02-28T12:10:10;20.80;;;15.40;;
78458;SDS011;67753;42.684;23.330;2023-02-28T12:12:23;19.63;;;14.37;;
78458;SDS011;67753;42.684;23.330;2023-02-28T12:14:46;19.13;;;13.57;;
78458;SDS011;67753;42.684;23.330;2023-02-28T12:16:59;15.40;;;12.90;;